Time;durP1;ratioP1;P1;durP2;ratioP2;P2;SDS_P1;SDS_P2;PMS_P1;PMS_P2;Temp;Humidity;BMP_temperature;BMP_pressure;BME280_temperature;BME280_humidity;BME280_pressure;Samples;Min_cycle;Max_cycle;Signal;HPM_P1;HPM_P2
2023/09/10 00:00:25;;;;;;;;;;;25.30;56.70;;;;;;3055422;19;4630;-24
2023/09/10 00:01:25;;;;;;;;;;;25.30;56.60;;;;;;3055210;19;4597;-25
2023/09/10 00:02:26;;;;;;;;;;;25.30;56.60;;;;;;3055858;19;4638;-25
2023/09/10 00:03:27;;;;;;;;;;;25.30;56.50;;;;;;3055038;19;4647;-25
2023/09/10 00:04:27;;;;;;;;;;;25.30;56.60;;;;;;3055794;19;4697;-28
2023/09/10 00:05:31;;;;;;;;;;;25.30;56.60;;;;;;3055211;19;4609;-25
2023/09/10 00:06:32;;;;;;;;;;;25.30;56.50;;;;;;3055858;19;4725;-24
2023/09/10 00:07:33;;;;;;;;;;;25.30;56.60;;;;;;3055773;19;4625;-26
2023/09/10 00:08:34;;;;;;;;;;;25.30;56.60;;;;;;3054838;19;4623;-29
2023/09/10 00:09:34;;;;;;;;;;;25.30;56.60;;;;;;3055633;19;4594;-28
2023/09/10 00:10:35;;;;;;;;;;;25.20;56.50;;;;;;3056134;19;4584;-27
2023/09/10 00:11:36;;;;;;;;;;;25.20;56.50;;;;;;3055052;19;4534;-26
2023/09/10 00:12:36;;;;;;;;;;;25.20;56.50;;;;;;3055647;19;4643;-29
2023/09/10 00:13:37;;;;;;;;;;;25.20;56.50;;;;;;3055446;19;4608;-25
2023/09/10 00:14:38;;;;;;;;;;;25.20;56.40;;;;;;3056055;19;4687;-25
2023/09/10 00:15:39;;;;;;;;;;;25.20;56.50;;;;;;3055523;19;4651;-26
2023/09/10 00:16:39;;;;;;;;;;;25.20;56.40;;;;;;3055155;19;4621;-27
2023/09/10 00:17:40;;;;;;;;;;;25.20;56.50;;;;;;3055483;19;4638;-25
2023/09/10 00:18:40;;;;;;;;;;;25.20;56.50;;;;;;3054435;19;4697;-26
2023/09/10 00:19:41;;;;;;;;;;;25.20;56.50;;;;;;3055305;19;4455;-26
2023/09/10 00:20:42;;;;;;;;;;;25.20;56.60;;;;;;3055308;19;4641;-26
2023/09/10 00:21:42;;;;;;;;;;;25.20;56.50;;;;;;3054274;19;4650;-31
2023/09/10 00:22:43;;;;;;;;;;;25.20;56.40;;;;;;3054883;19;4623;-31
2023/09/10 00:23:44;;;;;;;;;;;25.20;56.60;;;;;;3055684;19;4630;-31
2023/09/10 00:24:44;;;;;;;;;;;25.20;56.50;;;;;;3054854;19;4677;-30
2023/09/10 00:25:45;;;;;;;;;;;25.20;56.50;;;;;;3055707;19;4614;-31
2023/09/10 00:26:46;;;;;;;;;;;25.20;56.50;;;;;;3055903;19;4605;-33
2023/09/10 00:27:46;;;;;;;;;;;25.20;56.50;;;;;;3053704;19;4774;-30
2023/09/10 00:28:49;;;;;;;;;;;25.20;56.50;;;;;;3054755;19;4753;-33
2023/09/10 00:29:50;;;;;;;;;;;25.20;56.60;;;;;;3053701;19;4603;-29
2023/09/10 00:30:54;;;;;;;;;;;25.20;56.50;;;;;;3053485;19;4670;-30
2023/09/10 00:31:55;;;;;;;;;;;25.20;56.50;;;;;;3053728;19;4886;-34
2023/09/10 00:32:55;;;;;;;;;;;25.20;56.40;;;;;;3054042;19;4549;-33
2023/09/10 00:33:56;;;;;;;;;;;25.20;56.50;;;;;;3055105;19;4557;-30
2023/09/10 00:34:56;;;;;;;;;;;25.20;56.50;;;;;;3054280;19;4601;-32
2023/09/10 00:35:57;;;;;;;;;;;25.20;56.50;;;;;;3053582;19;4541;-30
2023/09/10 00:36:58;;;;;;;;;;;25.20;56.50;;;;;;3053157;19;4540;-31
2023/09/10 00:37:58;;;;;;;;;;;25.20;56.60;;;;;;3052933;19;4633;-31
2023/09/10 00:38:59;;;;;;;;;;;25.20;56.60;;;;;;3053741;19;4578;-33
2023/09/10 00:40:00;;;;;;;;;;;25.20;56.60;;;;;;3054333;19;4593;-30
2023/09/10 00:41:00;;;;;;;;;;;25.20;56.50;;;;;;3054631;19;4633;-31
2023/09/10 00:42:01;;;;;;;;;;;25.20;56.50;;;;;;3054168;19;4631;-30
2023/09/10 00:43:01;;;;;;;;;;;25.10;56.40;;;;;;3054830;19;4802;-30
2023/09/10 00:44:02;;;;;;;;;;;25.10;56.40;;;;;;3054957;19;4660;-31
2023/09/10 00:45:05;;;;;;;;;;;25.10;56.40;;;;;;3054694;19;4720;-33
2023/09/10 00:46:06;;;;;;;;;;;25.20;56.50;;;;;;3052550;19;4665;-34
2023/09/10 00:47:07;;;;;;;;;;;25.10;56.30;;;;;;3054199;19;4632;-30
2023/09/10 00:48:07;;;;;;;;;;;25.10;56.40;;;;;;3052260;19;4654;-30
2023/09/10 00:49:08;;;;;;;;;;;25.10;56.40;;;;;;3053813;19;4658;-33
2023/09/10 00:50:09;;;;;;;;;;;25.10;56.40;;;;;;3052977;19;4648;-34
2023/09/10 00:51:10;;;;;;;;;;;25.10;56.40;;;;;;3054463;19;4477;-32
2023/09/10 00:52:11;;;;;;;;;;;25.10;56.40;;;;;;3052953;19;4702;-31
2023/09/10 00:53:11;;;;;;;;;;;25.10;56.40;;;;;;3054069;19;4650;-30
2023/09/10 00:54:12;;;;;;;;;;;25.10;56.40;;;;;;3052628;19;4508;-33
2023/09/10 00:55:13;;;;;;;;;;;25.10;56.40;;;;;;3055082;19;4636;-28
2023/09/10 00:56:14;;;;;;;;;;;25.10;56.30;;;;;;3053201;19;4673;-33
2023/09/10 00:57:14;;;;;;;;;;;25.10;56.40;;;;;;3053451;19;4794;-31
2023/09/10 00:58:15;;;;;;;;;;;25.10;56.40;;;;;;3053766;19;4722;-31
2023/09/10 00:59:16;;;;;;;;;;;25.10;56.30;;;;;;3053211;19;4460;-30
2023/09/10 01:00:16;;;;;;;;;;;25.10;56.40;;;;;;3052895;19;4616;-33
2023/09/10 01:01:17;;;;;;;;;;;25.10;56.30;;;;;;3053653;19;4803;-32
2023/09/10 01:02:18;;;;;;;;;;;25.10;56.40;;;;;;3053537;19;4480;-35
2023/09/10 01:03:19;;;;;;;;;;;25.10;56.50;;;;;;3053940;19;4662;-32
2023/09/10 01:04:21;;;;;;;;;;;25.00;56.30;;;;;;3051515;19;4627;-33
2023/09/10 01:05:22;;;;;;;;;;;25.00;56.20;;;;;;3051589;19;4845;-31
2023/09/10 01:06:22;;;;;;;;;;;25.00;56.40;;;;;;3053111;19;4734;-30
2023/09/10 01:07:23;;;;;;;;;;;25.00;56.40;;;;;;3054893;19;4466;-34
2023/09/10 01:08:23;;;;;;;;;;;25.00;56.40;;;;;;3053839;19;4617;-32
2023/09/10 01:09:24;;;;;;;;;;;25.10;56.40;;;;;;3053232;19;4645;-34
2023/09/10 01:10:26;;;;;;;;;;;25.00;56.30;;;;;;3052225;19;4513;-31
2023/09/10 01:11:50;;;;;;;;;;;25.10;56.40;;;;;;3054453;19;4659;-33
2023/09/10 01:13:15;;;;;;;;;;;25.00;56.30;;;;;;3053864;19;4499;-31
2023/09/10 01:14:21;;;;;;;;;;;25.00;56.30;;;;;;2950137;19;2004438;-32
2023/09/10 01:15:29;;;;;;;;;;;25.00;56.30;;;;;;3051822;19;4502;-29
2023/09/10 01:16:44;;;;;;;;;;;25.00;56.30;;;;;;3053591;19;4656;-32
2023/09/10 01:18:04;;;;;;;;;;;25.00;56.30;;;;;;3052758;19;4616;-31
2023/09/10 01:19:13;;;;;;;;;;;25.00;56.30;;;;;;3052035;19;4561;-35
2023/09/10 01:20:39;;;;;;;;;;;25.00;56.30;;;;;;3053716;19;4415;-33
2023/09/10 01:21:48;;;;;;;;;;;25.00;56.30;;;;;;2949930;19;2004506;-33
2023/09/10 01:23:07;;;;;;;;;;;25.00;56.30;;;;;;3052170;19;4634;-31
2023/09/10 01:24:14;;;;;;;;;;;25.00;56.20;;;;;;3053109;19;4702;-31
2023/09/10 01:25:15;;;;;;;;;;;25.00;56.30;;;;;;3052250;19;4790;-31
2023/09/10 01:26:15;;;;;;;;;;;25.00;56.30;;;;;;3053992;19;4510;-33
2023/09/10 01:27:16;;;;;;;;;;;25.00;56.30;;;;;;3051711;19;4828;-30
2023/09/10 01:28:17;;;;;;;;;;;25.00;56.30;;;;;;3052516;19;4647;-34
2023/09/10 01:29:18;;;;;;;;;;;25.00;56.30;;;;;;3053243;19;4635;-31
2023/09/10 01:30:18;;;;;;;;;;;25.00;56.30;;;;;;3055235;19;4626;-32
2023/09/10 01:31:19;;;;;;;;;;;25.00;56.30;;;;;;3054056;19;4527;-33
2023/09/10 01:32:44;;;;;;;;;;;25.00;56.30;;;;;;3054284;19;4826;-26
2023/09/10 01:33:49;;;;;;;;;;;25.00;56.30;;;;;;3053752;19;4644;-25
